Charlotte Douglas International Airport
KCLT : rendu visible

Aérodrome :











RETROUVEZ-NOUS SUR...

 
LOGIN :

S'inscrire | Disclaimer

   EN    FR    IT 

 









Légende :    VFR   VFR Marginal   IFR   IFR Intensif   IFR Très Intensif
Visi : 
Plafond : 
>= 8 km
>= 3000ft
5 à 8 km
1000 à 3000 ft
1500m à 5 km
500 à 1000 ft
800 à 1500m
200 à 500 ft
< 800m
< 200 ft
Symboles :   Orages  Brouillard  Fortes neiges  Fortes précipitations  Vent > 20 kt






- Altitude de l'aérodrome : 748 ft
- Code IATA : CLT


KCLT - Charlotte Douglas International

DERNIER METAR :
  • 301315Z 00000KT 10SM BKN017 BKN060 13/13 A2951 RMK AO2 T01330128 $

METARs EXPIRÉS :
  • 301252Z 00000KT 10SM FEW009 SCT032 BKN055 13/12 A2951 RMK AO2 WSHFT 1149 RAE31 SLP989 P0020 T01280122
  • 301222Z 22006KT 5SM -RA BR SCT009 SCT018 BKN047 13/12 A2952 RMK AO2 WSHFT 1149 P0020 T01280122
  • 301215Z 24004G18KT 3SM -RA BR SCT004 BKN013 OVC021 13/12 A2951 RMK AO2 WSHFT 1149 P0020 T01280117
  • 301209Z 29008G21KT 1 1/2SM +RA BR FEW004 BKN013 OVC021 13/12 A2951 RMK AO2 WSHFT 1149 P0011 T01280122
  • 301201Z 27012G25KT 2 1/2SM +RA BR FEW004 OVC013 16/15 A2952 RMK AO2 PRESRR P0002 T01560150 $
  • 301134Z 18016G20KT 3SM BR BKN002 BKN004 OVC013 16/15 A2948 RMK AO2 RAE30 P0001 T01610150 $
  • 301052Z 12003KT 2SM -RA BR BKN002 OVC004 13/12 A2951 RMK AO2 LTG DSNT N RAE01B17 SLP988 P0004 T01280122 $
  • 301043Z 11004KT 2SM -RA BR BKN002 OVC004 12/12 A2951 RMK AO2 LTG DSNT N RAE01B17 P0003 T01220117 $

TAF KCLT
Valide du 30 à 13h jusqu'au 01 à 18h UTC


301252Z 3013/0118 22004KT P6SM VCSH SCT015 BKN040 WS020/22035KT
FM301500 24015G23KT P6SM SCT030 BKN045
FM301800 25014G23KT P6SM BKN060
FM010100 26011KT P6SM BKN045
FM011200 26011KT P6SM FEW050
FIR KZTL / Amérique du Nord



MET'MAP, la Météo Aéronautique d'un coup d'oeil ! - Copyright ORBIFLY Décembre 2007 - Disclaimer

ORBIFLY MET'MAP TEAM :

Programmation & Développement : Alexandra Zaïnal
Sur une idée originale de : Baudouin d'Aumeries
Assistance à la programmation : Marc-Olivier Méhu
Soutien technique & logistique : Manuel Goepfert

Contact : metmap@orbifly.com




SOURCES & CREDITS :

   NOAA       Earth
Advisory